sensor_id;sensor_type;location;lat;lon;timestamp;pressure;altitude;pressure_sealevel;temperature;humidity
38038;BME280;23843;51.320;12.340;2023-07-02T00:00:08;99324.22;;;19.20;100.00
38038;BME280;23843;51.320;12.340;2023-07-02T00:02:34;99325.25;;;19.19;100.00
38038;BME280;23843;51.320;12.340;2023-07-02T00:04:59;99321.53;;;19.20;100.00
38038;BME280;23843;51.320;12.340;2023-07-02T00:07:29;99319.69;;;19.21;100.00
38038;BME280;23843;51.320;12.340;2023-07-02T00:09:55;99323.22;;;19.21;100.00
38038;BME280;23843;51.320;12.340;2023-07-02T00:12:21;99321.22;;;19.23;100.00
38038;BME280;23843;51.320;12.340;2023-07-02T00:14:46;99326.44;;;19.25;100.00
38038;BME280;23843;51.320;12.340;2023-07-02T00:17:11;99330.97;;;19.24;100.00
38038;BME280;23843;51.320;12.340;2023-07-02T00:19:37;99331.13;;;19.23;100.00
38038;BME280;23843;51.320;12.340;2023-07-02T00:22:03;99336.63;;;19.21;100.00
38038;BME280;23843;51.320;12.340;2023-07-02T00:24:30;99332.81;;;19.24;100.00
38038;BME280;23843;51.320;12.340;2023-07-02T00:26:55;99334.47;;;19.25;100.00
38038;BME280;23843;51.320;12.340;2023-07-02T00:29:21;99335.31;;;19.25;100.00
38038;BME280;23843;51.320;12.340;2023-07-02T00:31:46;99337.03;;;19.27;100.00
38038;BME280;23843;51.320;12.340;2023-07-02T00:34:12;99336.69;;;19.30;100.00
38038;BME280;23843;51.320;12.340;2023-07-02T00:36:37;99337.66;;;19.29;100.00
38038;BME280;23843;51.320;12.340;2023-07-02T00:39:03;99332.47;;;19.27;100.00
38038;BME280;23843;51.320;12.340;2023-07-02T00:41:29;99337.31;;;19.23;100.00
38038;BME280;23843;51.320;12.340;2023-07-02T00:43:55;99333.81;;;19.23;100.00
38038;BME280;23843;51.320;12.340;2023-07-02T00:46:22;99327.94;;;19.28;100.00
38038;BME280;23843;51.320;12.340;2023-07-02T00:48:49;99336.69;;;19.30;100.00
38038;BME280;23843;51.320;12.340;2023-07-02T00:51:17;99336.84;;;19.28;100.00
38038;BME280;23843;51.320;12.340;2023-07-02T00:53:44;99332.00;;;19.32;100.00
38038;BME280;23843;51.320;12.340;2023-07-02T00:56:09;99330.97;;;19.33;100.00
38038;BME280;23843;51.320;12.340;2023-07-02T00:58:39;99332.00;;;19.32;100.00
38038;BME280;23843;51.320;12.340;2023-07-02T01:01:05;99329.81;;;19.35;100.00
38038;BME280;23843;51.320;12.340;2023-07-02T01:03:31;99337.72;;;19.37;100.00
38038;BME280;23843;51.320;12.340;2023-07-02T01:05:56;99339.03;;;19.41;100.00
38038;BME280;23843;51.320;12.340;2023-07-02T01:08:22;99332.53;;;19.43;100.00
38038;BME280;23843;51.320;12.340;2023-07-02T01:10:47;99333.34;;;19.44;100.00
38038;BME280;23843;51.320;12.340;2023-07-02T01:13:18;99329.84;;;19.43;100.00
38038;BME280;23843;51.320;12.340;2023-07-02T01:15:46;99324.28;;;19.45;100.00
38038;BME280;23843;51.320;12.340;2023-07-02T01:18:13;99329.66;;;19.45;100.00
38038;BME280;23843;51.320;12.340;2023-07-02T01:20:41;99326.13;;;19.44;100.00
38038;BME280;23843;51.320;12.340;2023-07-02T01:23:07;99326.28;;;19.43;100.00
38038;BME280;23843;51.320;12.340;2023-07-02T01:25:33;99328.97;;;19.43;100.00
38038;BME280;23843;51.320;12.340;2023-07-02T01:27:59;99319.09;;;19.43;100.00
38038;BME280;23843;51.320;12.340;2023-07-02T01:30:24;99323.78;;;19.41;100.00
38038;BME280;23843;51.320;12.340;2023-07-02T01:32:50;99335.84;;;19.37;100.00
38038;BME280;23843;51.320;12.340;2023-07-02T01:35:15;99329.31;;;19.32;100.00
38038;BME280;23843;51.320;12.340;2023-07-02T01:37:42;99326.28;;;19.27;100.00
38038;BME280;23843;51.320;12.340;2023-07-02T01:40:08;99325.91;;;19.21;100.00
38038;BME280;23843;51.320;12.340;2023-07-02T01:42:34;99331.78;;;19.17;100.00
38038;BME280;23843;51.320;12.340;2023-07-02T01:44:59;99332.97;;;19.14;100.00
38038;BME280;23843;51.320;12.340;2023-07-02T01:47:25;99332.28;;;19.12;100.00
38038;BME280;23843;51.320;12.340;2023-07-02T01:49:50;99338.13;;;19.08;100.00
38038;BME280;23843;51.320;12.340;2023-07-02T01:52:16;99340.81;;;19.08;100.00
38038;BME280;23843;51.320;12.340;2023-07-02T01:54:45;99350.03;;;19.05;100.00
38038;BME280;23843;51.320;12.340;2023-07-02T01:57:10;99350.03;;;19.05;100.00
38038;BME280;23843;51.320;12.340;2023-07-02T01:59:36;99354.06;;;19.09;100.00
38038;BME280;23843;51.320;12.340;2023-07-02T02:02:01;99347.69;;;19.10;100.00
38038;BME280;23843;51.320;12.340;2023-07-02T02:04:27;99357.28;;;19.13;100.00
38038;BME280;23843;51.320;12.340;2023-07-02T02:06:52;99352.06;;;19.11;100.00
38038;BME280;23843;51.320;12.340;2023-07-02T02:09:19;99355.56;;;19.12;100.00
38038;BME280;23843;51.320;12.340;2023-07-02T02:11:48;99354.72;;;19.11;100.00
38038;BME280;23843;51.320;12.340;2023-07-02T02:14:14;99364.63;;;19.11;100.00
38038;BME280;23843;51.320;12.340;2023-07-02T02:16:40;99354.44;;;19.14;100.00
38038;BME280;23843;51.320;12.340;2023-07-02T02:19:05;99359.81;;;19.14;100.00
38038;BME280;23843;51.320;12.340;2023-07-02T02:21:31;99363.47;;;19.13;100.00
38038;BME280;23843;51.320;12.340;2023-07-02T02:23:57;99362.97;;;19.10;100.00
38038;BME280;23843;51.320;12.340;2023-07-02T02:26:22;99359.75;;;19.06;100.00
38038;BME280;23843;51.320;12.340;2023-07-02T02:28:49;99361.09;;;19.02;100.00
38038;BME280;23843;51.320;12.340;2023-07-02T02:31:15;99355.72;;;19.02;100.00
38038;BME280;23843;51.320;12.340;2023-07-02T02:33:40;99353.69;;;19.04;100.00
38038;BME280;23843;51.320;12.340;2023-07-02T02:36:06;99357.06;;;19.06;100.00
38038;BME280;23843;51.320;12.340;2023-07-02T02:38:32;99353.69;;;19.04;100.00
38038;BME280;23843;51.320;12.340;2023-07-02T02:40:57;99360.91;;;19.03;100.00
38038;BME280;23843;51.320;12.340;2023-07-02T02:43:22;99352.38;;;19.00;100.00
38038;BME280;23843;51.320;12.340;2023-07-02T02:45:49;99365.09;;;18.98;100.00
38038;BME280;23843;51.320;12.340;2023-07-02T02:48:15;99375.00;;;18.97;100.00
38038;BME280;23843;51.320;12.340;2023-07-02T02:50:40;99372.13;;;18.99;100.00
38038;BME280;23843;51.320;12.340;2023-07-02T02:53:06;99379.50;;;18.97;100.00
38038;BME280;23843;51.320;12.340;2023-07-02T02:55:31;99380.84;;;18.93;100.00
38038;BME280;23843;51.320;12.340;2023-07-02T02:57:57;99377.31;;;18.92;100.00
38038;BME280;23843;51.320;12.340;2023-07-02T03:00:22;99384.22;;;18.95;100.00
38038;BME280;23843;51.320;12.340;2023-07-02T03:02:49;99385.75;;;18.97;100.00
38038;BME280;23843;51.320;12.340;2023-07-02T03:05:14;99384.03;;;18.96;100.00
38038;BME280;23843;51.320;12.340;2023-07-02T03:07:40;99382.50;;;18.94;100.00
38038;BME280;23843;51.320;12.340;2023-07-02T03:10:06;99387.88;;;18.94;100.00
38038;BME280;23843;51.320;12.340;2023-07-02T03:12:32;99388.22;;;18.91;100.00
38038;BME280;23843;51.320;12.340;2023-07-02T03:14:57;99388.34;;;18.89;100.00
38038;BME280;23843;51.320;12.340;2023-07-02T03:17:23;99393.03;;;18.87;100.00
38038;BME280;23843;51.320;12.340;2023-07-02T03:19:50;99388.53;;;18.88;100.00
38038;BME280;23843;51.320;12.340;2023-07-02T03:22:15;99395.44;;;18.90;100.00
38038;BME280;23843;51.320;12.340;2023-07-02T03:24:41;99399.78;;;18.91;100.00
38038;BME280;23843;51.320;12.340;2023-07-02T03:27:07;99401.63;;;18.91;100.00
38038;BME280;23843;51.320;12.340;2023-07-02T03:29:34;99392.91;;;18.89;100.00
38038;BME280;23843;51.320;12.340;2023-07-02T03:31:59;99394.56;;;18.90;100.00
38038;BME280;23843;51.320;12.340;2023-07-02T03:34:25;99399.28;;;18.88;100.00
38038;BME280;23843;51.320;12.340;2023-07-02T03:36:52;99401.63;;;18.91;100.00
38038;BME280;23843;51.320;12.340;2023-07-02T03:39:18;99401.63;;;18.91;100.00
38038;BME280;23843;51.320;12.340;2023-07-02T03:41:43;99407.69;;;18.93;100.00
38038;BME280;23843;51.320;12.340;2023-07-02T03:44:09;99404.16;;;18.92;100.00
38038;BME280;23843;51.320;12.340;2023-07-02T03:46:34;99407.00;;;18.91;100.00
38038;BME280;23843;51.320;12.340;2023-07-02T03:49:00;99414.38;;;18.89;100.00
38038;BME280;23843;51.320;12.340;2023-07-02T03:51:25;99409.84;;;18.89;100.00
38038;BME280;23843;51.320;12.340;2023-07-02T03:53:52;99415.03;;;18.91;100.00
38038;BME280;23843;51.320;12.340;2023-07-02T03:56:17;99416.56;;;18.93;100.00
38038;BME280;23843;51.320;12.340;2023-07-02T03:58:43;99412.72;;;18.96;100.00
38038;BME280;23843;51.320;12.340;2023-07-02T04:01:09;99420.63;;;18.97;100.00
38038;BME280;23843;51.320;12.340;2023-07-02T04:03:34;99420.63;;;18.97;100.00
38038;BME280;23843;51.320;12.340;2023-07-02T04:05:59;99420.78;;;18.96;100.00
38038;BME280;23843;51.320;12.340;2023-07-02T04:08:25;99426.47;;;18.93;100.00
38038;BME280;23843;51.320;12.340;2023-07-02T04:10:52;99427.81;;;18.97;100.00
38038;BME280;23843;51.320;12.340;2023-07-02T04:13:18;99430.34;;;18.98;100.00
38038;BME280;23843;51.320;12.340;2023-07-02T04:15:43;99437.38;;;18.99;100.00
38038;BME280;23843;51.320;12.340;2023-07-02T04:18:09;99443.28;;;19.03;100.00
38038;BME280;23843;51.320;12.340;2023-07-02T04:20:34;99442.13;;;19.06;100.00
38038;BME280;23843;51.320;12.340;2023-07-02T04:23:00;99446.47;;;19.07;100.00
38038;BME280;23843;51.320;12.340;2023-07-02T04:25:25;99450.69;;;19.09;100.00
38038;BME280;23843;51.320;12.340;2023-07-02T04:27:52;99450.69;;;19.09;100.00
38038;BME280;23843;51.320;12.340;2023-07-02T04:30:17;99442.34;;;19.12;100.00
38038;BME280;23843;51.320;12.340;2023-07-02T04:32:43;99449.06;;;19.16;100.00
38038;BME280;23843;51.320;12.340;2023-07-02T04:35:09;99440.69;;;19.19;100.00
38038;BME280;23843;51.320;12.340;2023-07-02T04:37:35;99437.34;;;19.25;100.00
38038;BME280;23843;51.320;12.340;2023-07-02T04:40:00;99438.72;;;19.30;100.00
38038;BME280;23843;51.320;12.340;2023-07-02T04:42:26;99433.84;;;19.33;100.00
38038;BME280;23843;51.320;12.340;2023-07-02T04:44:53;99440.09;;;19.34;100.00
38038;BME280;23843;51.320;12.340;2023-07-02T04:47:18;99441.75;;;19.35;100.00
38038;BME280;23843;51.320;12.340;2023-07-02T04:49:44;99439.75;;;19.37;100.00
38038;BME280;23843;51.320;12.340;2023-07-02T04:52:09;99449.66;;;19.36;100.00
38038;BME280;23843;51.320;12.340;2023-07-02T04:54:35;99450.84;;;19.42;100.00
38038;BME280;23843;51.320;12.340;2023-07-02T04:57:00;99448.16;;;19.42;100.00
38038;BME280;23843;51.320;12.340;2023-07-02T04:59:25;99452.22;;;19.46;100.00
38038;BME280;23843;51.320;12.340;2023-07-02T05:01:52;99454.25;;;19.52;100.00
38038;BME280;23843;51.320;12.340;2023-07-02T05:04:18;99457.13;;;19.59;100.00
38038;BME280;23843;51.320;12.340;2023-07-02T05:06:44;99459.00;;;19.66;100.00
38038;BME280;23843;51.320;12.340;2023-07-02T05:09:09;99464.59;;;19.73;100.00
38038;BME280;23843;51.320;12.340;2023-07-02T05:11:35;99459.09;;;19.91;100.00
38038;BME280;23843;51.320;12.340;2023-07-02T05:14:00;99466.00;;;20.18;100.00
38038;BME280;23843;51.320;12.340;2023-07-02T05:16:26;99459.00;;;20.58;100.00
38038;BME280;23843;51.320;12.340;2023-07-02T05:18:53;99461.81;;;20.81;100.00
38038;BME280;23843;51.320;12.340;2023-07-02T05:21:19;99465.50;;;21.05;100.00
38038;BME280;23843;51.320;12.340;2023-07-02T05:23:44;99465.72;;;21.26;100.00
38038;BME280;23843;51.320;12.340;2023-07-02T05:26:10;99468.25;;;21.44;99.60
38038;BME280;23843;51.320;12.340;2023-07-02T05:28:36;99471.72;;;21.53;98.40
38038;BME280;23843;51.320;12.340;2023-07-02T05:31:01;99466.78;;;21.73;98.13
38038;BME280;23843;51.320;12.340;2023-07-02T05:33:27;99480.03;;;22.06;95.34
38038;BME280;23843;51.320;12.340;2023-07-02T05:35:53;99475.09;;;22.40;92.99
38038;BME280;23843;51.320;12.340;2023-07-02T05:38:19;99477.38;;;22.29;90.64
38038;BME280;23843;51.320;12.340;2023-07-02T05:40:45;99477.75;;;22.26;90.52
38038;BME280;23843;51.320;12.340;2023-07-02T05:43:10;99485.13;;;22.32;90.59
38038;BME280;23843;51.320;12.340;2023-07-02T05:45:36;99485.34;;;22.45;89.37
38038;BME280;23843;51.320;12.340;2023-07-02T05:48:01;99485.81;;;23.10;88.95
38038;BME280;23843;51.320;12.340;2023-07-02T05:50:27;99481.88;;;23.42;85.70
38038;BME280;23843;51.320;12.340;2023-07-02T05:52:54;99489.91;;;23.35;80.52
38038;BME280;23843;51.320;12.340;2023-07-02T05:55:20;99487.53;;;23.62;84.25
38038;BME280;23843;51.320;12.340;2023-07-02T05:57:45;99484.56;;;23.57;78.26
38038;BME280;23843;51.320;12.340;2023-07-02T06:00:12;99478.81;;;23.45;81.49
38038;BME280;23843;51.320;12.340;2023-07-02T06:02:38;99478.50;;;23.69;79.86
38038;BME280;23843;51.320;12.340;2023-07-02T06:05:04;99480.09;;;24.15;75.32
38038;BME280;23843;51.320;12.340;2023-07-02T06:07:30;99474.47;;;24.38;76.05
38038;BME280;23843;51.320;12.340;2023-07-02T06:09:57;99475.56;;;24.65;69.67
38038;BME280;23843;51.320;12.340;2023-07-02T06:12:23;99474.03;;;25.12;68.85
38038;BME280;23843;51.320;12.340;2023-07-02T06:14:49;99466.75;;;25.96;66.27
38038;BME280;23843;51.320;12.340;2023-07-02T06:17:14;99467.19;;;26.06;55.37
38038;BME280;23843;51.320;12.340;2023-07-02T06:19:44;99478.72;;;25.67;63.62
38038;BME280;23843;51.320;12.340;2023-07-02T06:22:10;99474.41;;;26.80;67.05
38038;BME280;23843;51.320;12.340;2023-07-02T06:24:35;99469.38;;;29.39;49.19
38038;BME280;23843;51.320;12.340;2023-07-02T06:27:02;99471.19;;;29.45;49.18
38038;BME280;23843;51.320;12.340;2023-07-02T06:29:28;99472.72;;;29.78;49.08
38038;BME280;23843;51.320;12.340;2023-07-02T06:31:53;99460.59;;;32.05;46.95
38038;BME280;23843;51.320;12.340;2023-07-02T06:34:19;99462.81;;;32.36;43.25
38038;BME280;23843;51.320;12.340;2023-07-02T06:36:44;99475.09;;;33.01;41.14
38038;BME280;23843;51.320;12.340;2023-07-02T06:39:10;99473.63;;;32.94;37.37
38038;BME280;23843;51.320;12.340;2023-07-02T06:41:35;99485.34;;;32.55;42.04
38038;BME280;23843;51.320;12.340;2023-07-02T06:44:02;99486.09;;;32.05;46.42
38038;BME280;23843;51.320;12.340;2023-07-02T06:46:28;99479.66;;;31.35;38.35
38038;BME280;23843;51.320;12.340;2023-07-02T06:48:54;99487.47;;;30.49;39.47
38038;BME280;23843;51.320;12.340;2023-07-02T06:51:20;99491.38;;;30.96;47.81
38038;BME280;23843;51.320;12.340;2023-07-02T06:53:45;99477.66;;;33.64;42.86
38038;BME280;23843;51.320;12.340;2023-07-02T06:56:11;99485.44;;;34.76;32.31
38038;BME280;23843;51.320;12.340;2023-07-02T06:58:36;99490.66;;;35.62;35.32
38038;BME280;23843;51.320;12.340;2023-07-02T07:01:03;99497.63;;;35.80;35.84
38038;BME280;23843;51.320;12.340;2023-07-02T07:03:29;99493.00;;;34.95;34.08
38038;BME280;23843;51.320;12.340;2023-07-02T07:05:55;99502.88;;;35.87;30.48
38038;BME280;23843;51.320;12.340;2023-07-02T07:08:21;99494.78;;;36.53;31.60
38038;BME280;23843;51.320;12.340;2023-07-02T07:10:47;99495.22;;;37.53;29.30
38038;BME280;23843;51.320;12.340;2023-07-02T07:13:12;99488.59;;;37.48;33.77
38038;BME280;23843;51.320;12.340;2023-07-02T07:15:38;99500.88;;;36.66;35.82
38038;BME280;23843;51.320;12.340;2023-07-02T07:18:05;99503.06;;;36.58;28.74
38038;BME280;23843;51.320;12.340;2023-07-02T07:20:30;99496.19;;;38.71;33.01
38038;BME280;23843;51.320;12.340;2023-07-02T07:22:56;99495.81;;;40.28;21.86
38038;BME280;23843;51.320;12.340;2023-07-02T07:25:24;99494.25;;;39.78;25.31
38038;BME280;23843;51.320;12.340;2023-07-02T07:27:51;99499.84;;;38.27;27.34
38038;BME280;23843;51.320;12.340;2023-07-02T07:30:16;99492.53;;;36.35;26.54
38038;BME280;23843;51.320;12.340;2023-07-02T07:32:42;99511.25;;;34.74;32.16
38038;BME280;23843;51.320;12.340;2023-07-02T07:35:09;99500.81;;;33.51;31.31
38038;BME280;23843;51.320;12.340;2023-07-02T07:37:34;99503.50;;;32.45;34.84
38038;BME280;23843;51.320;12.340;2023-07-02T07:40:03;99502.41;;;31.36;31.93
38038;BME280;23843;51.320;12.340;2023-07-02T07:42:29;99514.38;;;30.64;35.57
38038;BME280;23843;51.320;12.340;2023-07-02T07:44:54;99508.13;;;30.34;36.43
38038;BME280;23843;51.320;12.340;2023-07-02T07:47:20;99504.25;;;29.74;36.64
38038;BME280;23843;51.320;12.340;2023-07-02T07:49:47;99501.78;;;29.11;35.57
38038;BME280;23843;51.320;12.340;2023-07-02T07:52:14;99508.63;;;28.70;38.18
38038;BME280;23843;51.320;12.340;2023-07-02T07:54:40;99509.34;;;28.58;37.94
38038;BME280;23843;51.320;12.340;2023-07-02T07:57:06;99507.81;;;28.31;38.62
38038;BME280;23843;51.320;12.340;2023-07-02T07:59:32;99503.28;;;28.18;38.73
38038;BME280;23843;51.320;12.340;2023-07-02T08:02:00;99505.50;;;27.96;38.47
38038;BME280;23843;51.320;12.340;2023-07-02T08:04:25;99506.22;;;27.71;39.49
38038;BME280;23843;51.320;12.340;2023-07-02T08:06:53;99513.66;;;27.38;37.46
38038;BME280;23843;51.320;12.340;2023-07-02T08:09:20;99514.09;;;27.08;38.69
38038;BME280;23843;51.320;12.340;2023-07-02T08:11:45;99511.81;;;26.85;38.27
38038;BME280;23843;51.320;12.340;2023-07-02T08:14:11;99510.75;;;26.73;39.19
38038;BME280;23843;51.320;12.340;2023-07-02T08:16:37;99508.22;;;26.58;38.26
38038;BME280;23843;51.320;12.340;2023-07-02T08:19:02;99519.06;;;26.44;39.16
38038;BME280;23843;51.320;12.340;2023-07-02T08:21:28;99523.00;;;26.35;40.08
38038;BME280;23843;51.320;12.340;2023-07-02T08:23:53;99522.56;;;26.25;39.12
38038;BME280;23843;51.320;12.340;2023-07-02T08:26:23;99523.44;;;26.32;38.79
38038;BME280;23843;51.320;12.340;2023-07-02T08:28:49;99527.50;;;26.63;39.74
38038;BME280;23843;51.320;12.340;2023-07-02T08:31:14;99524.53;;;26.58;38.99
38038;BME280;23843;51.320;12.340;2023-07-02T08:33:40;99518.22;;;26.37;38.58
38038;BME280;23843;51.320;12.340;2023-07-02T08:36:06;99519.88;;;26.25;39.20
38038;BME280;23843;51.320;12.340;2023-07-02T08:38:31;99524.47;;;26.24;39.42
38038;BME280;23843;51.320;12.340;2023-07-02T08:41:00;99523.22;;;26.40;39.58
38038;BME280;23843;51.320;12.340;2023-07-02T08:43:29;99531.22;;;26.55;40.02
38038;BME280;23843;51.320;12.340;2023-07-02T08:45:55;99515.34;;;26.72;39.81
38038;BME280;23843;51.320;12.340;2023-07-02T08:48:21;99516.41;;;26.64;39.42
38038;BME280;23843;51.320;12.340;2023-07-02T08:50:47;99513.69;;;26.71;39.23
38038;BME280;23843;51.320;12.340;2023-07-02T08:53:13;99523.72;;;26.71;38.76
38038;BME280;23843;51.320;12.340;2023-07-02T08:55:39;99519.97;;;26.78;38.91
38038;BME280;23843;51.320;12.340;2023-07-02T08:58:04;99524.13;;;26.54;38.83
38038;BME280;23843;51.320;12.340;2023-07-02T09:00:31;99522.78;;;26.30;38.51
38038;BME280;23843;51.320;12.340;2023-07-02T09:02:57;99531.28;;;26.00;38.38
38038;BME280;23843;51.320;12.340;2023-07-02T09:05:22;99532.38;;;25.71;39.45
38038;BME280;23843;51.320;12.340;2023-07-02T09:07:49;99520.84;;;25.62;40.49
38038;BME280;23843;51.320;12.340;2023-07-02T09:10:26;99529.63;;;25.65;40.10
38038;BME280;23843;51.320;12.340;2023-07-02T09:13:02;99532.56;;;25.63;40.71
38038;BME280;23843;51.320;12.340;2023-07-02T09:15:37;99531.59;;;25.42;40.49
38038;BME280;23843;51.320;12.340;2023-07-02T09:18:14;99533.94;;;25.17;40.92
38038;BME280;23843;51.320;12.340;2023-07-02T09:20:44;99532.91;;;24.97;41.49
38038;BME280;23843;51.320;12.340;2023-07-02T09:23:11;99534.75;;;24.90;41.88
38038;BME280;23843;51.320;12.340;2023-07-02T09:25:38;99536.59;;;24.89;42.13
38038;BME280;23843;51.320;12.340;2023-07-02T09:28:16;99543.69;;;25.40;42.59
38038;BME280;23843;51.320;12.340;2023-07-02T09:30:53;99537.28;;;26.57;42.16
38038;BME280;23843;51.320;12.340;2023-07-02T09:33:20;99529.97;;;28.41;40.58
38038;BME280;23843;51.320;12.340;2023-07-02T09:35:45;99519.28;;;30.32;36.33
38038;BME280;23843;51.320;12.340;2023-07-02T09:38:11;99523.97;;;31.56;33.89
38038;BME280;23843;51.320;12.340;2023-07-02T09:40:44;99513.78;;;32.66;33.54
38038;BME280;23843;51.320;12.340;2023-07-02T09:43:11;99509.47;;;33.60;32.37
38038;BME280;23843;51.320;12.340;2023-07-02T09:45:37;99511.88;;;34.00;30.46
38038;BME280;23843;51.320;12.340;2023-07-02T09:48:05;99516.09;;;33.64;30.65
38038;BME280;23843;51.320;12.340;2023-07-02T09:50:32;99515.94;;;33.15;29.43
38038;BME280;23843;51.320;12.340;2023-07-02T09:52:57;99522.41;;;32.58;29.77
38038;BME280;23843;51.320;12.340;2023-07-02T09:55:23;99520.97;;;32.10;30.06
38038;BME280;23843;51.320;12.340;2023-07-02T09:57:49;99518.47;;;31.56;31.13
38038;BME280;23843;51.320;12.340;2023-07-02T10:00:15;99517.06;;;30.95;32.28
38038;BME280;23843;51.320;12.340;2023-07-02T10:02:41;99530.72;;;30.53;32.59
38038;BME280;23843;51.320;12.340;2023-07-02T10:05:08;99531.06;;;30.44;32.88
38038;BME280;23843;51.320;12.340;2023-07-02T10:07:34;99534.38;;;30.35;32.68
38038;BME280;23843;51.320;12.340;2023-07-02T10:09:59;99518.22;;;30.15;32.03
38038;BME280;23843;51.320;12.340;2023-07-02T10:12:26;99532.00;;;29.90;33.07
38038;BME280;23843;51.320;12.340;2023-07-02T10:14:55;99521.47;;;29.75;33.53
38038;BME280;23843;51.320;12.340;2023-07-02T10:17:25;99533.31;;;29.69;34.15
38038;BME280;23843;51.320;12.340;2023-07-02T10:19:51;99527.53;;;29.58;32.90
38038;BME280;23843;51.320;12.340;2023-07-02T10:22:21;99534.09;;;29.32;33.71
38038;BME280;23843;51.320;12.340;2023-07-02T10:24:51;99547.78;;;29.07;34.48
38038;BME280;23843;51.320;12.340;2023-07-02T10:27:17;99535.78;;;28.83;33.81
38038;BME280;23843;51.320;12.340;2023-07-02T10:29:49;99533.47;;;28.55;34.35
38038;BME280;23843;51.320;12.340;2023-07-02T10:32:25;99545.69;;;28.46;34.54
38038;BME280;23843;51.320;12.340;2023-07-02T10:34:51;99542.53;;;28.42;35.30
38038;BME280;23843;51.320;12.340;2023-07-02T10:37:17;99530.22;;;28.33;33.89
38038;BME280;23843;51.320;12.340;2023-07-02T10:39:44;99543.75;;;28.14;33.84
38038;BME280;23843;51.320;12.340;2023-07-02T10:42:10;99525.78;;;28.07;34.45
38038;BME280;23843;51.320;12.340;2023-07-02T10:44:47;99529.81;;;27.98;35.09
38038;BME280;23843;51.320;12.340;2023-07-02T10:47:13;99532.59;;;27.78;34.28
38038;BME280;23843;51.320;12.340;2023-07-02T10:49:41;99542.09;;;27.48;34.48
38038;BME280;23843;51.320;12.340;2023-07-02T10:52:07;99547.53;;;27.15;35.35
38038;BME280;23843;51.320;12.340;2023-07-02T10:54:42;99538.56;;;27.08;36.12
38038;BME280;23843;51.320;12.340;2023-07-02T10:57:10;99543.56;;;27.11;35.95
38038;BME280;23843;51.320;12.340;2023-07-02T10:59:37;99547.53;;;27.15;35.67
38038;BME280;23843;51.320;12.340;2023-07-02T11:02:03;99555.94;;;27.20;35.91
38038;BME280;23843;51.320;12.340;2023-07-02T11:04:30;99573.06;;;27.27;36.04
38038;BME280;23843;51.320;12.340;2023-07-02T11:06:55;99573.91;;;27.35;36.37
38038;BME280;23843;51.320;12.340;2023-07-02T11:09:21;99572.22;;;27.33;35.97
38038;BME280;23843;51.320;12.340;2023-07-02T11:11:51;99585.81;;;27.40;36.35
38038;BME280;23843;51.320;12.340;2023-07-02T11:14:28;99575.13;;;27.52;36.39
38038;BME280;23843;51.320;12.340;2023-07-02T11:16:54;99588.94;;;27.57;36.77
38038;BME280;23843;51.320;12.340;2023-07-02T11:19:20;99582.66;;;27.63;36.57
38038;BME280;23843;51.320;12.340;2023-07-02T11:21:51;99578.66;;;27.59;36.31
38038;BME280;23843;51.320;12.340;2023-07-02T11:24:27;99581.59;;;27.64;36.40
38038;BME280;23843;51.320;12.340;2023-07-02T11:26:56;99578.44;;;27.67;36.69
38038;BME280;23843;51.320;12.340;2023-07-02T11:29:22;99576.38;;;27.56;36.49
38038;BME280;23843;51.320;12.340;2023-07-02T11:31:49;99577.88;;;27.39;36.49
38038;BME280;23843;51.320;12.340;2023-07-02T11:34:15;99578.94;;;27.24;36.21
38038;BME280;23843;51.320;12.340;2023-07-02T11:36:41;99569.94;;;27.17;37.22
38038;BME280;23843;51.320;12.340;2023-07-02T11:39:07;99571.81;;;27.10;36.39
38038;BME280;23843;51.320;12.340;2023-07-02T11:41:36;99591.25;;;26.94;36.68
38038;BME280;23843;51.320;12.340;2023-07-02T11:44:02;99588.09;;;26.83;36.49
38038;BME280;23843;51.320;12.340;2023-07-02T11:46:27;99575.53;;;26.82;36.85
38038;BME280;23843;51.320;12.340;2023-07-02T11:48:54;99572.63;;;26.77;36.80
38038;BME280;23843;51.320;12.340;2023-07-02T11:51:19;99579.31;;;26.68;37.30
38038;BME280;23843;51.320;12.340;2023-07-02T11:53:45;99579.31;;;26.68;37.40
38038;BME280;23843;51.320;12.340;2023-07-02T11:56:10;99568.84;;;26.65;37.42
38038;BME280;23843;51.320;12.340;2023-07-02T11:58:36;99571.75;;;26.57;37.43
38038;BME280;23843;51.320;12.340;2023-07-02T12:01:02;99576.16;;;26.64;38.04
38038;BME280;23843;51.320;12.340;2023-07-02T12:03:27;99583.28;;;26.65;37.22
38038;BME280;23843;51.320;12.340;2023-07-02T12:05:54;99583.69;;;26.69;36.87
38038;BME280;23843;51.320;12.340;2023-07-02T12:08:23;99583.91;;;26.74;36.59
38038;BME280;23843;51.320;12.340;2023-07-02T12:10:50;99584.34;;;26.78;36.71
38038;BME280;23843;51.320;12.340;2023-07-02T12:13:15;99577.84;;;26.72;36.23
38038;BME280;23843;51.320;12.340;2023-07-02T12:15:41;99579.28;;;26.55;36.35
38038;BME280;23843;51.320;12.340;2023-07-02T12:18:07;99580.97;;;26.56;36.96
38038;BME280;23843;51.320;12.340;2023-07-02T12:20:34;99579.28;;;26.55;36.52
38038;BME280;23843;51.320;12.340;2023-07-02T12:23:01;99578.44;;;26.54;36.30
38038;BME280;23843;51.320;12.340;2023-07-02T12:25:26;99576.38;;;26.63;36.65
38038;BME280;23843;51.320;12.340;2023-07-02T12:27:52;99577.84;;;26.59;35.73
38038;BME280;23843;51.320;12.340;2023-07-02T12:30:17;99577.63;;;26.54;35.32
38038;BME280;23843;51.320;12.340;2023-07-02T12:32:43;99583.81;;;26.47;35.51
38038;BME280;23843;51.320;12.340;2023-07-02T12:35:08;99584.66;;;26.48;36.06
38038;BME280;23843;51.320;12.340;2023-07-02T12:37:34;99583.03;;;26.60;36.22
38038;BME280;23843;51.320;12.340;2023-07-02T12:40:01;99585.16;;;26.65;35.70